createdAt,value
2019-02-27T00:00:32.206Z,3.40
2019-02-27T00:03:19.218Z,3.60
2019-02-27T00:06:07.051Z,3.70
2019-02-27T00:08:54.296Z,3.70
2019-02-27T00:11:46.002Z,3.80
2019-02-27T00:14:31.191Z,3.70
2019-02-27T00:17:18.882Z,3.60
2019-02-27T00:20:06.960Z,3.60
2019-02-27T00:22:54.038Z,3.60
2019-02-27T00:25:41.081Z,3.50
2019-02-27T00:28:28.466Z,3.40
2019-02-27T00:31:15.764Z,3.30
2019-02-27T00:34:02.728Z,3.40
2019-02-27T00:36:49.773Z,3.40
2019-02-27T00:39:36.693Z,3.40
2019-02-27T00:42:23.440Z,3.30
2019-02-27T00:45:11.597Z,3.30
2019-02-27T00:47:58.628Z,3.20
2019-02-27T00:50:45.545Z,3.20
2019-02-27T00:53:32.732Z,3.20
2019-02-27T00:56:20.039Z,3.20
2019-02-27T00:59:06.980Z,3.20
2019-02-27T01:01:54.202Z,3.30
2019-02-27T01:04:41.272Z,3.10
2019-02-27T01:07:28.438Z,3.10
2019-02-27T01:10:15.727Z,3.10
2019-02-27T01:13:02.514Z,3.00
2019-02-27T01:15:49.484Z,3.00
2019-02-27T01:18:36.737Z,3.00
2019-02-27T01:21:23.878Z,2.90
2019-02-27T01:24:11.530Z,3.00
2019-02-27T01:26:58.434Z,2.90
2019-02-27T01:29:45.695Z,2.70
2019-02-27T01:32:32.941Z,2.60
2019-02-27T01:35:20.181Z,2.70
2019-02-27T01:38:07.406Z,2.60
2019-02-27T01:40:54.393Z,2.40
2019-02-27T01:43:41.409Z,2.40
2019-02-27T01:46:28.666Z,2.40
2019-02-27T01:49:16.785Z,2.50
2019-02-27T01:52:03.832Z,2.60
2019-02-27T01:54:50.848Z,2.60
2019-02-27T01:57:37.861Z,2.60
2019-02-27T02:00:24.950Z,2.60
2019-02-27T02:03:13.607Z,2.50
2019-02-27T02:06:00.825Z,2.50
2019-02-27T02:08:48.252Z,2.50
2019-02-27T02:11:35.732Z,2.50
2019-02-27T02:14:43.432Z,2.50
2019-02-27T02:18:06.462Z,2.50
2019-02-27T02:21:08.665Z,2.50
2019-02-27T02:24:13.470Z,2.50
2019-02-27T02:27:08.231Z,2.40
2019-02-27T02:29:57.798Z,2.40
2019-02-27T02:32:52.324Z,2.20
2019-02-27T02:35:57.417Z,2.10
2019-02-27T02:39:08.794Z,2.10
2019-02-27T02:42:04.891Z,2.20
2019-02-27T02:45:10.134Z,2.20
2019-02-27T02:48:00.375Z,2.20
2019-02-27T02:51:12.879Z,2.20
2019-02-27T02:54:17.978Z,2.20
2019-02-27T02:57:08.115Z,2.20
2019-02-27T03:00:13.513Z,2.10
2019-02-27T03:03:21.737Z,1.90
2019-02-27T03:06:34.579Z,1.90
2019-02-27T03:09:30.227Z,1.90
2019-02-27T03:12:31.105Z,1.90
2019-02-27T03:15:28.423Z,1.90
2019-02-27T03:18:37.042Z,1.80
2019-02-27T03:21:30.125Z,1.90
2019-02-27T03:24:31.630Z,1.90
2019-02-27T03:27:30.855Z,1.90
2019-02-27T03:30:40.482Z,1.80
2019-02-27T03:33:50.435Z,1.80
2019-02-27T03:37:13.417Z,1.70
2019-02-27T03:40:03.423Z,1.60
2019-02-27T03:42:53.163Z,1.50
2019-02-27T03:45:58.458Z,1.50
2019-02-27T03:49:09.706Z,1.60
2019-02-27T03:52:18.006Z,1.60
2019-02-27T03:55:33.678Z,1.70
2019-02-27T03:58:35.965Z,1.70
2019-02-27T04:01:31.632Z,1.70
2019-02-27T04:04:29.549Z,1.60
2019-02-27T04:07:25.131Z,1.60
2019-02-27T04:10:12.342Z,1.60
2019-02-27T04:12:59.597Z,1.60
2019-02-27T04:15:46.985Z,1.50
2019-02-27T04:18:32.601Z,1.50
2019-02-27T04:21:25.022Z,1.50
2019-02-27T04:24:08.185Z,1.50
2019-02-27T04:26:55.521Z,1.90
2019-02-27T04:29:42.763Z,2.20
2019-02-27T04:32:30.744Z,2.40
2019-02-27T04:35:18.156Z,2.50
2019-02-27T04:38:05.770Z,2.60
2019-02-27T04:40:53.160Z,2.70
2019-02-27T04:43:40.317Z,2.70
2019-02-27T04:46:27.566Z,2.70
2019-02-27T04:49:15.028Z,2.80
2019-02-27T04:52:02.279Z,2.80
2019-02-27T04:54:49.502Z,2.80
2019-02-27T04:57:36.678Z,2.80
2019-02-27T05:00:26.255Z,2.70
2019-02-27T05:03:12.828Z,2.70
2019-02-27T05:06:00.090Z,2.70
2019-02-27T05:08:47.313Z,2.70
2019-02-27T05:11:34.570Z,2.70
2019-02-27T05:14:22.133Z,2.60
2019-02-27T05:17:09.485Z,2.60
2019-02-27T05:19:56.748Z,2.70
2019-02-27T05:22:44.165Z,2.80
2019-02-27T05:25:31.378Z,2.70
2019-02-27T05:28:18.778Z,2.70
2019-02-27T05:31:06.114Z,2.60
2019-02-27T05:33:53.849Z,2.70
2019-02-27T05:36:41.331Z,2.60
2019-02-27T05:39:28.741Z,2.60
2019-02-27T05:42:15.955Z,2.60
2019-02-27T05:45:03.737Z,2.60
2019-02-27T05:47:51.247Z,2.60
2019-02-27T05:50:38.537Z,2.60
2019-02-27T05:53:26.159Z,2.60
2019-02-27T05:56:16.318Z,2.60
2019-02-27T05:59:02.193Z,2.50
2019-02-27T06:01:48.877Z,2.50
2019-02-27T06:04:36.194Z,2.50
2019-02-27T06:07:23.502Z,2.50
2019-02-27T06:10:20.203Z,2.50
2019-02-27T06:13:06.188Z,2.50
2019-02-27T06:15:53.028Z,2.50
2019-02-27T06:18:40.469Z,2.40
2019-02-27T06:21:27.975Z,2.50
2019-02-27T06:24:15.296Z,2.60
2019-02-27T06:27:06.116Z,2.50
2019-02-27T06:29:51.740Z,2.40
2019-02-27T06:32:38.639Z,2.50
2019-02-27T06:35:26.201Z,2.50
2019-02-27T06:38:13.548Z,2.50
2019-02-27T06:41:00.564Z,2.60
2019-02-27T06:43:48.097Z,2.70
2019-02-27T06:46:35.541Z,2.70
2019-02-27T06:49:22.633Z,2.80
2019-02-27T06:52:09.942Z,2.90
2019-02-27T06:54:57.306Z,2.90
2019-02-27T06:57:44.725Z,3.00
2019-02-27T07:00:35.800Z,3.10
2019-02-27T07:03:20.134Z,3.20
2019-02-27T07:06:07.814Z,3.30
2019-02-27T07:08:54.772Z,3.20
2019-02-27T07:11:44.895Z,3.30
2019-02-27T07:14:31.243Z,3.50
2019-02-27T07:17:18.417Z,3.70
2019-02-27T07:20:08.876Z,3.80
2019-02-27T07:22:56.020Z,4.00
2019-02-27T07:25:43.355Z,4.10
2019-02-27T07:28:30.800Z,4.30
2019-02-27T07:31:18.528Z,4.50
2019-02-27T07:34:06.205Z,4.60
2019-02-27T07:36:53.241Z,4.50
2019-02-27T07:39:40.691Z,4.60
2019-02-27T07:42:31.908Z,5.00
2019-02-27T07:45:18.536Z,5.30
2019-02-27T07:48:05.613Z,5.90
2019-02-27T07:50:53.256Z,7.00
2019-02-27T07:53:40.703Z,7.90
2019-02-27T07:56:28.430Z,8.90
2019-02-27T07:59:15.460Z,9.90
2019-02-27T08:02:03.183Z,10.50
2019-02-27T08:04:51.664Z,11.20
2019-02-27T08:07:40.243Z,11.70
2019-02-27T08:10:27.597Z,11.90
2019-02-27T08:13:14.810Z,10.80
2019-02-27T08:16:02.075Z,10.40
2019-02-27T08:18:49.620Z,10.40
2019-02-27T08:21:36.685Z,10.70
2019-02-27T08:24:24.890Z,11.00
2019-02-27T08:27:11.812Z,11.40
2019-02-27T08:29:59.850Z,11.70
2019-02-27T08:32:47.178Z,11.70
2019-02-27T08:35:33.903Z,11.70
2019-02-27T08:38:20.547Z,12.50
2019-02-27T08:41:07.853Z,12.50
2019-02-27T08:43:54.895Z,12.30
2019-02-27T08:46:42.556Z,12.10
2019-02-27T08:49:31.891Z,12.80
2019-02-27T08:52:19.497Z,12.90
2019-02-27T08:55:18.862Z,13.20
2019-02-27T08:57:59.524Z,13.60
2019-02-27T09:00:48.077Z,13.70
2019-02-27T09:03:36.435Z,14.20
2019-02-27T09:06:27.527Z,14.20
2019-02-27T09:09:14.969Z,14.60
2019-02-27T09:12:03.329Z,15.00
2019-02-27T09:14:51.167Z,15.40
2019-02-27T09:17:38.990Z,15.80
2019-02-27T09:20:27.105Z,16.20
2019-02-27T09:23:14.577Z,17.20
2019-02-27T09:26:03.414Z,18.00
2019-02-27T09:28:51.229Z,18.90
2019-02-27T09:31:38.745Z,19.50
2019-02-27T09:34:26.825Z,19.80
2019-02-27T09:37:16.912Z,19.00
2019-02-27T09:40:07.294Z,18.70
2019-02-27T09:42:55.023Z,18.30
2019-02-27T09:45:46.156Z,18.30
2019-02-27T09:48:33.499Z,19.00
2019-02-27T09:51:22.314Z,18.40
2019-02-27T09:54:11.070Z,18.70
2019-02-27T09:57:02.087Z,19.40
2019-02-27T09:59:51.146Z,19.00
2019-02-27T10:02:38.303Z,18.90
2019-02-27T10:05:26.296Z,20.10
2019-02-27T10:08:14.027Z,20.50
2019-02-27T10:11:01.874Z,21.30
2019-02-27T10:13:49.634Z,22.20
2019-02-27T10:16:37.246Z,21.40
2019-02-27T10:19:27.009Z,22.40
2019-02-27T10:22:13.832Z,23.00
2019-02-27T10:25:01.515Z,24.20
2019-02-27T10:27:49.349Z,24.40
2019-02-27T10:30:36.940Z,24.20
2019-02-27T10:33:25.884Z,24.50
2019-02-27T10:36:13.178Z,24.40
2019-02-27T10:39:02.130Z,24.50
2019-02-27T10:41:50.631Z,25.00
2019-02-27T10:44:38.290Z,25.80
2019-02-27T10:47:25.846Z,26.20
2019-02-27T10:50:14.314Z,26.20
2019-02-27T10:53:01.926Z,26.90
2019-02-27T10:55:50.059Z,27.30
2019-02-27T10:58:37.697Z,27.60
2019-02-27T11:01:25.071Z,27.80
2019-02-27T11:04:12.377Z,27.40
2019-02-27T11:06:59.690Z,27.60
2019-02-27T11:09:47.176Z,28.10
2019-02-27T11:12:34.333Z,27.10
2019-02-27T11:15:22.733Z,27.50
2019-02-27T11:18:10.123Z,28.40
2019-02-27T11:20:59.146Z,28.30
2019-02-27T11:23:46.615Z,28.80
2019-02-27T11:26:34.039Z,28.80
2019-02-27T11:29:23.594Z,28.80
2019-02-27T11:32:10.142Z,28.60
2019-02-27T11:34:57.389Z,27.30
2019-02-27T11:37:47.518Z,29.30
2019-02-27T11:40:34.152Z,29.10
2019-02-27T11:43:21.560Z,28.80
2019-02-27T11:46:09.271Z,28.50
2019-02-27T11:48:57.047Z,29.90
2019-02-27T11:51:45.475Z,29.80
2019-02-27T11:54:32.794Z,29.10
2019-02-27T11:57:20.519Z,29.30
2019-02-27T12:00:13.603Z,29.50
2019-02-27T12:03:00.692Z,31.20
2019-02-27T12:05:48.163Z,30.90
2019-02-27T12:08:35.358Z,31.90
2019-02-27T12:11:22.649Z,31.90
2019-02-27T12:14:10.544Z,32.10
2019-02-27T12:16:57.861Z,32.50
2019-02-27T12:19:45.320Z,32.30
2019-02-27T12:22:32.951Z,31.50
2019-02-27T12:25:26.899Z,32.80
2019-02-27T12:28:11.552Z,33.00
2019-02-27T12:30:58.895Z,30.60
2019-02-27T12:33:46.257Z,31.30
2019-02-27T12:36:33.915Z,30.50
2019-02-27T12:39:21.405Z,31.40
2019-02-27T12:42:08.640Z,32.60
2019-02-27T12:44:56.157Z,33.70
2019-02-27T12:47:43.445Z,32.40
2019-02-27T12:50:31.666Z,32.60
2019-02-27T12:53:21.554Z,33.20
2019-02-27T12:56:08.611Z,33.50
2019-02-27T12:58:58.281Z,33.70
2019-02-27T13:01:45.603Z,32.70
2019-02-27T13:04:32.961Z,33.20
2019-02-27T13:07:20.529Z,31.80
2019-02-27T13:10:16.144Z,32.30
2019-02-27T13:13:03.842Z,32.10
2019-02-27T13:15:51.473Z,31.60
2019-02-27T13:18:38.557Z,32.30
2019-02-27T13:21:26.064Z,32.80
2019-02-27T13:24:15.386Z,32.70
2019-02-27T13:27:02.839Z,32.30
2019-02-27T13:29:52.163Z,31.70
2019-02-27T13:32:39.132Z,31.70
2019-02-27T13:35:28.468Z,30.50
2019-02-27T13:38:18.511Z,31.30
2019-02-27T13:41:07.775Z,31.10
2019-02-27T13:43:54.249Z,31.20
2019-02-27T13:46:41.200Z,31.80
2019-02-27T13:49:28.649Z,32.10
2019-02-27T13:52:15.913Z,32.50
2019-02-27T13:55:03.232Z,32.90
2019-02-27T13:57:50.913Z,32.60
2019-02-27T14:00:38.314Z,29.20
2019-02-27T14:03:25.626Z,30.00
2019-02-27T14:06:13.254Z,30.00
2019-02-27T14:09:00.705Z,29.30
2019-02-27T14:11:48.380Z,30.40
2019-02-27T14:14:35.572Z,30.30
2019-02-27T14:17:23.234Z,31.20
2019-02-27T14:20:15.664Z,31.00
2019-02-27T14:23:03.275Z,31.70
2019-02-27T14:25:50.894Z,31.70
2019-02-27T14:28:38.397Z,32.20
2019-02-27T14:31:25.398Z,32.00
2019-02-27T14:34:12.981Z,32.20
2019-02-27T14:37:00.320Z,32.40
2019-02-27T14:39:47.615Z,32.10
2019-02-27T14:42:34.943Z,32.60
2019-02-27T14:45:25.867Z,32.40
2019-02-27T14:48:13.159Z,31.50
2019-02-27T14:51:00.726Z,31.10
2019-02-27T14:53:51.978Z,31.60
2019-02-27T14:56:37.250Z,32.10
2019-02-27T14:59:24.652Z,31.20
2019-02-27T15:02:12.086Z,31.90
2019-02-27T15:04:59.294Z,31.80
2019-02-27T15:07:47.021Z,31.40
2019-02-27T15:10:34.623Z,32.10
2019-02-27T15:13:22.261Z,31.50
2019-02-27T15:16:09.462Z,31.00
2019-02-27T15:18:56.936Z,31.20
2019-02-27T15:21:46.532Z,31.10
2019-02-27T15:24:34.961Z,30.40
2019-02-27T15:27:25.110Z,30.50
2019-02-27T15:30:17.118Z,30.30
2019-02-27T15:33:05.448Z,30.30
2019-02-27T15:35:55.416Z,28.80
2019-02-27T15:38:43.570Z,27.40
2019-02-27T15:41:35.100Z,26.60
2019-02-27T15:44:20.237Z,25.80
2019-02-27T15:47:07.362Z,26.40
2019-02-27T15:49:54.665Z,26.00
2019-02-27T15:52:42.035Z,25.50
2019-02-27T15:55:32.823Z,25.00
2019-02-27T15:58:18.963Z,24.50
2019-02-27T16:01:06.500Z,24.40
2019-02-27T16:03:54.282Z,24.00
2019-02-27T16:06:42.130Z,23.80
2019-02-27T16:09:31.814Z,24.60
2019-02-27T16:12:19.963Z,25.40
2019-02-27T16:15:10.336Z,25.70
2019-02-27T16:17:57.945Z,26.00
2019-02-27T16:20:47.043Z,25.90
2019-02-27T16:23:37.273Z,25.70
2019-02-27T16:26:26.951Z,24.60
2019-02-27T16:29:13.521Z,23.60
2019-02-27T16:32:01.140Z,22.80
2019-02-27T16:34:50.309Z,22.30
2019-02-27T16:37:37.957Z,21.80
2019-02-27T16:40:26.796Z,21.50
2019-02-27T16:43:14.471Z,20.80
2019-02-27T16:46:07.323Z,20.30
2019-02-27T16:48:51.425Z,19.60
2019-02-27T16:51:39.210Z,19.10
2019-02-27T16:54:27.600Z,18.70
2019-02-27T16:57:21.066Z,18.50
2019-02-27T17:00:07.759Z,18.40
2019-02-27T17:02:57.051Z,18.20
2019-02-27T17:05:44.862Z,18.00
2019-02-27T17:08:35.663Z,17.70
2019-02-27T17:11:22.443Z,17.50
2019-02-27T17:14:10.420Z,17.30
2019-02-27T17:16:57.987Z,17.10
2019-02-27T17:19:45.657Z,16.90
2019-02-27T17:22:33.930Z,16.70
2019-02-27T17:25:21.737Z,16.30
2019-02-27T17:28:09.278Z,16.00
2019-02-27T17:30:56.522Z,16.00
2019-02-27T17:33:44.343Z,15.70
2019-02-27T17:36:32.627Z,15.50
2019-02-27T17:39:22.262Z,15.40
2019-02-27T17:42:09.863Z,15.20
2019-02-27T17:44:56.936Z,15.10
2019-02-27T17:47:44.790Z,14.90
2019-02-27T17:50:32.454Z,14.50
2019-02-27T17:53:20.413Z,14.40
2019-02-27T17:56:08.753Z,14.20
2019-02-27T17:58:57.939Z,14.10
2019-02-27T18:01:46.951Z,13.90
2019-02-27T18:04:33.686Z,13.80
2019-02-27T18:07:20.596Z,13.60
2019-02-27T18:10:10.189Z,13.50
2019-02-27T18:12:58.908Z,13.40
2019-02-27T18:15:45.517Z,13.30
2019-02-27T18:18:32.753Z,13.00
2019-02-27T18:21:19.921Z,12.90
2019-02-27T18:24:07.252Z,12.60
2019-02-27T18:26:54.234Z,12.40
2019-02-27T18:29:43.668Z,12.20
2019-02-27T18:32:30.011Z,12.10
2019-02-27T18:35:17.694Z,12.00
2019-02-27T18:38:04.665Z,12.00
2019-02-27T18:40:51.813Z,12.00
2019-02-27T18:43:39.100Z,11.80
2019-02-27T18:46:25.881Z,11.80
2019-02-27T18:49:18.166Z,11.80
2019-02-27T18:52:06.388Z,11.40
2019-02-27T18:54:50.346Z,11.30
2019-02-27T18:57:39.042Z,11.30
2019-02-27T19:00:28.205Z,11.20
2019-02-27T19:03:15.446Z,11.00
2019-02-27T19:06:02.582Z,10.60
2019-02-27T19:08:49.914Z,10.80
2019-02-27T19:11:36.957Z,10.70
2019-02-27T19:14:24.054Z,10.70
2019-02-27T19:17:11.466Z,10.70
2019-02-27T19:19:58.240Z,10.60
2019-02-27T19:22:45.553Z,10.60
2019-02-27T19:25:34.749Z,10.50
2019-02-27T19:28:24.598Z,10.30
2019-02-27T19:31:10.160Z,10.30
2019-02-27T19:33:57.104Z,10.30
2019-02-27T19:36:44.564Z,9.90
2019-02-27T19:39:31.880Z,9.90
2019-02-27T19:42:19.059Z,9.90
2019-02-27T19:45:08.150Z,9.90
2019-02-27T19:47:55.836Z,9.80
2019-02-27T19:50:46.364Z,9.40
2019-02-27T19:53:31.533Z,9.30
2019-02-27T19:56:18.586Z,9.40
2019-02-27T19:59:05.730Z,9.40
2019-02-27T20:01:53.057Z,9.40
2019-02-27T20:04:44.679Z,9.20
2019-02-27T20:07:28.993Z,9.30
2019-02-27T20:10:17.455Z,9.20
2019-02-27T20:13:06.340Z,9.20
2019-02-27T20:15:53.366Z,9.00
2019-02-27T20:18:40.517Z,9.00
2019-02-27T20:21:29.248Z,8.90
2019-02-27T20:24:16.319Z,8.90
2019-02-27T20:27:03.635Z,8.80
2019-02-27T20:29:50.775Z,8.60
2019-02-27T20:32:37.863Z,8.60
2019-02-27T20:35:25.123Z,8.50
2019-02-27T20:38:15.348Z,8.40
2019-02-27T20:41:00.714Z,8.30
2019-02-27T20:43:47.687Z,8.30
2019-02-27T20:46:34.925Z,8.20
2019-02-27T20:49:21.865Z,8.10
2019-02-27T20:52:14.560Z,8.10
2019-02-27T20:54:58.932Z,8.00
2019-02-27T20:57:46.532Z,7.90
2019-02-27T21:00:36.373Z,7.80
2019-02-27T21:03:26.768Z,7.80
2019-02-27T21:06:12.879Z,7.80
2019-02-27T21:08:59.432Z,7.80
2019-02-27T21:11:46.917Z,7.60
2019-02-27T21:14:34.007Z,7.60
2019-02-27T21:17:21.873Z,7.50
2019-02-27T21:20:11.918Z,7.50
2019-02-27T21:25:49.309Z,7.40
2019-02-27T21:27:12.525Z,7.40
2019-02-27T21:28:36.905Z,7.20
2019-02-27T21:31:27.572Z,7.10
2019-02-27T21:34:12.517Z,7.00
2019-02-27T21:36:59.288Z,7.00
2019-02-27T21:39:46.062Z,7.00
2019-02-27T21:42:33.345Z,7.00
2019-02-27T21:45:23.700Z,6.80
2019-02-27T21:48:11.127Z,6.60
2019-02-27T21:50:58.210Z,6.60
2019-02-27T21:53:45.294Z,6.50
2019-02-27T21:56:32.357Z,6.60
2019-02-27T21:59:19.382Z,6.50
2019-02-27T22:02:06.142Z,6.50
2019-02-27T22:04:53.478Z,6.30
2019-02-27T22:07:40.534Z,6.40
2019-02-27T22:10:27.269Z,6.50
2019-02-27T22:13:14.242Z,6.40
2019-02-27T22:16:01.242Z,6.40
2019-02-27T22:18:48.114Z,6.30
2019-02-27T22:21:35.103Z,6.20
2019-02-27T22:24:21.878Z,6.20
2019-02-27T22:27:09.160Z,5.90
2019-02-27T22:29:59.689Z,5.90
2019-02-27T22:32:48.147Z,6.00
2019-02-27T22:35:37.957Z,6.00
2019-02-27T22:38:26.589Z,5.90
2019-02-27T22:41:12.286Z,5.70
2019-02-27T22:43:59.585Z,5.50
2019-02-27T22:46:47.838Z,5.40
2019-02-27T22:49:35.809Z,5.50
2019-02-27T22:52:23.183Z,5.40
2019-02-27T22:55:10.911Z,5.40
2019-02-27T22:57:58.034Z,5.50
2019-02-27T23:00:56.646Z,5.40
2019-02-27T23:03:49.577Z,5.40
2019-02-27T23:06:36.924Z,5.50
2019-02-27T23:09:25.655Z,5.40
2019-02-27T23:12:13.113Z,5.30
2019-02-27T23:15:00.405Z,5.20
2019-02-27T23:17:47.696Z,5.20
2019-02-27T23:20:34.965Z,5.00
2019-02-27T23:23:21.989Z,5.10
2019-02-27T23:26:09.423Z,5.10
2019-02-27T23:28:56.692Z,5.00
2019-02-27T23:31:43.755Z,5.00
2019-02-27T23:34:30.977Z,4.80
2019-02-27T23:37:18.232Z,4.80
2019-02-27T23:40:07.182Z,4.60
2019-02-27T23:42:54.538Z,4.70
2019-02-27T23:45:44.535Z,4.70
2019-02-27T23:48:30.297Z,4.70
2019-02-27T23:51:17.806Z,4.70
2019-02-27T23:54:04.982Z,4.60
2019-02-27T23:56:52.947Z,4.60
2019-02-27T23:59:39.965Z,4.60
